Time;durP1;ratioP1;P1;durP2;ratioP2;P2;SDS_P1;SDS_P2;PMS_P1;PMS_P2;Temp;Humidity;BMP_temperature;BMP_pressure;BME280_temperature;BME280_humidity;BME280_pressure;Samples;Min_cycle;Max_cycle;Signal;HPM_P1;HPM_P2
2023/08/11 00:02:15;;;;;;;19.83;12.25;;;;;;;;;;5050661;28;20338;-78
2023/08/11 00:04:41;;;;;;;18.40;11.82;;;;;;;;;;5068762;28;20079;-74
2023/08/11 00:07:07;;;;;;;;;;;;;;;;;;5066631;28;20051;-76
2023/08/11 00:09:33;;;;;;;22.83;14.55;;;;;;;;;;5068092;28;20014;-75
2023/08/11 00:11:59;;;;;;;;;;;;;;;;;;5074959;28;20067;-75
2023/08/11 00:14:26;;;;;;;21.77;13.20;;;;;;;;;;5071133;28;19971;-75
2023/08/11 00:16:52;;;;;;;18.15;13.20;;;;;;;;;;5035497;28;20123;-75
2023/08/11 00:19:18;;;;;;;24.17;13.93;;;;;;;;;;5073972;28;20040;-78
2023/08/11 00:21:44;;;;;;;;;;;;;;;;;;5052363;28;20045;-75
2023/08/11 00:24:11;;;;;;;19.20;12.95;;;;;;;;;;5057697;28;19927;-75
2023/08/11 00:26:37;;;;;;;21.50;12.75;;;;;;;;;;5073867;28;20036;-76
2023/08/11 00:29:03;;;;;;;;;;;;;;;;;;5074048;28;20146;-76
2023/08/11 00:31:29;;;;;;;20.85;12.95;;;;;;;;;;5074155;28;20365;-75
2023/08/11 00:33:56;;;;;;;18.70;13.13;;;;;;;;;;5057765;28;20579;-75
2023/08/11 00:36:22;;;;;;;20.85;13.70;;;;;;;;;;5054884;28;20097;-75
2023/08/11 00:38:49;;;;;;;19.85;13.27;;;;;;;;;;5047392;28;20484;-75
2023/08/11 00:41:16;;;;;;;21.27;12.90;;;;;;;;;;5068298;28;20041;-75
2023/08/11 00:43:42;;;;;;;19.70;13.32;;;;;;;;;;5059434;28;20047;-75
2023/08/11 00:46:10;;;;;;;24.25;13.05;;;;;;;;;;5068625;28;20039;-75
2023/08/11 00:48:37;;;;;;;13.27;8.05;;;;;;;;;;5073893;28;20087;-75
2023/08/11 00:51:05;;;;;;;18.27;12.65;;;;;;;;;;5057722;28;20052;-75
2023/08/11 00:53:31;;;;;;;20.52;12.73;;;;;;;;;;5034525;28;20106;-74
2023/08/11 00:55:57;;;;;;;20.30;12.95;;;;;;;;;;5054398;28;20052;-76
2023/08/11 00:58:23;;;;;;;;;;;;;;;;;;5053595;28;20048;-78
2023/08/11 01:00:50;;;;;;;22.08;13.70;;;;;;;;;;5052841;28;20357;-75
2023/08/11 01:03:18;;;;;;;20.50;13.07;;;;;;;;;;5053176;28;20055;-75
2023/08/11 01:05:48;;;;;;;23.40;13.18;;;;;;;;;;5050348;28;20037;-74
2023/08/11 01:08:38;;;;;;;24.70;12.70;;;;;;;;;;5019047;28;20149;-75
2023/08/11 01:11:17;;;;;;;18.63;12.93;;;;;;;;;;5016402;28;20109;-75
2023/08/11 01:13:48;;;;;;;17.13;12.38;;;;;;;;;;5052805;28;20472;-75
2023/08/11 01:16:15;;;;;;;18.10;12.68;;;;;;;;;;5054358;28;20048;-74
2023/08/11 01:18:41;;;;;;;21.75;13.77;;;;;;;;;;5037043;28;20139;-75
2023/08/11 01:21:10;;;;;;;22.50;13.68;;;;;;;;;;5034740;28;20039;-75
2023/08/11 01:23:36;;;;;;;16.50;11.38;;;;;;;;;;5033219;28;20055;-75
2023/08/11 01:26:02;;;;;;;;;;;;;;;;;;5034658;28;20053;-75
2023/08/11 01:28:28;;;;;;;18.13;11.63;;;;;;;;;;5028897;28;19928;-75
2023/08/11 01:30:54;;;;;;;;;;;;;;;;;;5033838;28;20524;-75
2023/08/11 01:33:20;;;;;;;24.38;14.35;;;;;;;;;;5037472;28;19920;-75
2023/08/11 01:35:46;;;;;;;;;;;;;;;;;;5053889;28;20372;-75
2023/08/11 01:38:12;;;;;;;19.92;14.05;;;;;;;;;;5053773;28;20405;-75
2023/08/11 01:40:39;;;;;;;19.85;14.02;;;;;;;;;;5034918;28;20056;-75
2023/08/11 01:43:06;;;;;;;21.48;14.45;;;;;;;;;;5036397;28;20055;-75
2023/08/11 01:45:33;;;;;;;23.35;15.10;;;;;;;;;;5049453;28;20052;-75
2023/08/11 01:48:00;;;;;;;23.60;15.55;;;;;;;;;;5034100;28;20141;-75
2023/08/11 01:50:27;;;;;;;22.55;14.50;;;;;;;;;;5033857;28;20060;-74
2023/08/11 01:52:54;;;;;;;23.10;14.40;;;;;;;;;;5033534;28;20052;-75
2023/08/11 01:55:20;;;;;;;22.40;14.55;;;;;;;;;;5033777;28;20160;-75
2023/08/11 01:57:46;;;;;;;;;;;;;;;;;;5033379;28;20096;-75
2023/08/11 02:00:16;;;;;;;22.45;14.02;;;;;;;;;;5033092;28;19925;-75
2023/08/11 02:02:43;;;;;;;22.90;14.68;;;;;;;;;;5038213;28;20059;-76
2023/08/11 02:05:11;;;;;;;22.30;14.75;;;;;;;;;;5052787;28;20536;-75
2023/08/11 02:07:38;;;;;;;22.08;14.68;;;;;;;;;;5028404;28;20061;-76
2023/08/11 02:10:04;;;;;;;24.40;14.45;;;;;;;;;;5030309;28;20053;-75
2023/08/11 02:12:31;;;;;;;22.77;15.02;;;;;;;;;;5030063;28;20042;-75
2023/08/11 02:14:57;;;;;;;24.38;14.48;;;;;;;;;;5014168;28;20045;-76
2023/08/11 02:17:24;;;;;;;20.98;14.23;;;;;;;;;;5053856;28;20060;-75
2023/08/11 02:19:50;;;;;;;25.02;16.23;;;;;;;;;;5020558;28;20095;-75
2023/08/11 02:22:16;;;;;;;21.65;14.82;;;;;;;;;;5051135;28;20120;-74
2023/08/11 02:24:42;;;;;;;;;;;;;;;;;;5053563;28;20045;-75
2023/08/11 02:27:09;;;;;;;21.08;14.15;;;;;;;;;;5069979;28;19990;-75
2023/08/11 02:29:36;;;;;;;20.85;15.02;;;;;;;;;;5019358;28;20084;-78
2023/08/11 02:32:04;;;;;;;22.35;14.07;;;;;;;;;;5051213;28;20048;-75
2023/08/11 02:34:31;;;;;;;21.42;13.88;;;;;;;;;;5037509;28;20049;-75
2023/08/11 02:36:57;;;;;;;18.77;14.15;;;;;;;;;;5053130;28;20052;-75
2023/08/11 02:39:23;;;;;;;21.17;13.55;;;;;;;;;;5036717;28;20060;-74
2023/08/11 02:41:50;;;;;;;20.35;14.10;;;;;;;;;;5052541;28;20045;-75
2023/08/11 02:44:15;;;;;;;;;;;;;;;;;;5033039;28;20045;-75
2023/08/11 02:46:41;;;;;;;22.65;13.40;;;;;;;;;;5081181;28;20054;-75
2023/08/11 02:49:07;;;;;;;;;;;;;;;;;;5017559;28;20045;-75
2023/08/11 02:51:34;;;;;;;23.17;13.38;;;;;;;;;;5066817;28;19928;-75
2023/08/11 02:54:01;;;;;;;21.67;13.55;;;;;;;;;;5052483;28;20140;-74
2023/08/11 02:56:27;;;;;;;19.35;13.50;;;;;;;;;;5053244;28;20053;-75
2023/08/11 02:58:56;;;;;;;20.63;13.95;;;;;;;;;;5034457;28;20044;-75
2023/08/11 03:01:23;;;;;;;19.35;13.52;;;;;;;;;;5053151;28;20128;-75
2023/08/11 03:03:49;;;;;;;22.00;13.82;;;;;;;;;;5050493;28;20037;-76
2023/08/11 03:06:15;;;;;;;;;;;;;;;;;;5027847;28;20053;-75
2023/08/11 03:08:41;;;;;;;19.67;12.60;;;;;;;;;;5082843;28;19928;-75
2023/08/11 03:11:07;;;;;;;19.55;12.30;;;;;;;;;;5060858;28;20421;-75
2023/08/11 03:13:34;;;;;;;18.42;12.95;;;;;;;;;;5058784;28;20057;-75
2023/08/11 03:16:00;;;;;;;;;;;;;;;;;;5063521;28;20449;-75
2023/08/11 03:18:26;;;;;;;19.75;12.82;;;;;;;;;;5077274;28;19921;-75
2023/08/11 03:20:52;;;;;;;;;;;;;;;;;;5027334;28;20084;-75
2023/08/11 03:23:18;;;;;;;20.98;12.70;;;;;;;;;;5083066;28;19927;-75
2023/08/11 03:25:45;;;;;;;17.58;12.55;;;;;;;;;;5039302;28;20045;-75
2023/08/11 03:28:11;;;;;;;25.73;12.48;;;;;;;;;;5042279;28;20048;-75
2023/08/11 03:30:37;;;;;;;18.65;12.23;;;;;;;;;;5051837;28;20045;-75
2023/08/11 03:33:03;;;;;;;18.55;12.77;;;;;;;;;;5052348;28;20135;-75
2023/08/11 03:35:29;;;;;;;;;;;;;;;;;;5029299;28;20053;-75
2023/08/11 03:37:55;;;;;;;20.42;11.95;;;;;;;;;;5067457;28;19921;-75
2023/08/11 03:40:21;;;;;;;;;;;;;;;;;;5032905;28;20521;-75
2023/08/11 03:42:48;;;;;;;19.63;11.75;;;;;;;;;;5064389;28;19921;-74
2023/08/11 03:45:14;;;;;;;18.63;10.90;;;;;;;;;;5015438;28;20045;-75
2023/08/11 03:47:41;;;;;;;19.75;12.02;;;;;;;;;;5032266;28;20050;-75
2023/08/11 03:50:07;;;;;;;18.58;11.43;;;;;;;;;;5031926;28;20045;-75
2023/08/11 03:52:34;;;;;;;18.17;11.98;;;;;;;;;;5036255;28;20060;-74
2023/08/11 03:55:00;;;;;;;22.65;12.57;;;;;;;;;;5015122;28;20128;-74
2023/08/11 03:57:26;;;;;;;18.88;11.27;;;;;;;;;;5031817;28;20048;-75
2023/08/11 03:59:53;;;;;;;15.68;11.18;;;;;;;;;;5030468;28;20136;-75
2023/08/11 04:02:18;;;;;;;;;;;;;;;;;;5032169;28;20044;-75
2023/08/11 04:04:48;;;;;;;20.08;11.25;;;;;;;;;;5065084;28;19921;-77
2023/08/11 04:07:14;;;;;;;17.27;10.43;;;;;;;;;;5050429;28;20049;-75
2023/08/11 04:09:43;;;;;;;;;;;;;;;;;;5055537;28;20049;-75
2023/08/11 04:12:10;;;;;;;17.38;10.85;;;;;;;;;;5054394;28;19989;-75
2023/08/11 04:14:37;;;;;;;16.13;10.55;;;;;;;;;;5051594;28;20482;-75
2023/08/11 04:17:03;;;;;;;18.42;10.75;;;;;;;;;;5037716;28;20048;-75
2023/08/11 04:19:29;;;;;;;;;;;;;;;;;;5042382;28;20122;-75
2023/08/11 04:21:55;;;;;;;16.60;11.07;;;;;;;;;;5047609;28;19920;-75
2023/08/11 04:24:21;;;;;;;;;;;;;;;;;;5055196;28;20036;-75
2023/08/11 04:26:47;;;;;;;18.65;11.60;;;;;;;;;;5053688;28;20270;-78
2023/08/11 04:29:13;;;;;;;;;;;;;;;;;;5054137;28;20041;-75
2023/08/11 04:31:40;;;;;;;18.80;12.05;;;;;;;;;;5037651;28;19928;-75
2023/08/11 04:34:06;;;;;;;20.65;12.73;;;;;;;;;;5034074;28;20860;-75
2023/08/11 04:36:32;;;;;;;19.00;12.02;;;;;;;;;;5044792;28;20141;-76
2023/08/11 04:38:59;;;;;;;17.58;11.88;;;;;;;;;;5049625;28;20082;-75
2023/08/11 04:41:25;;;;;;;18.13;10.63;;;;;;;;;;5051530;28;20496;-76
2023/08/11 04:43:51;;;;;;;20.30;12.60;;;;;;;;;;5034991;28;20375;-76
2023/08/11 04:46:17;;;;;;;;;;;;;;;;;;5043526;28;20055;-75
2023/08/11 04:48:43;;;;;;;17.77;12.00;;;;;;;;;;5054121;28;19920;-75
2023/08/11 04:51:09;;;;;;;;;;;;;;;;;;5038038;28;20333;-75
2023/08/11 04:53:35;;;;;;;19.17;11.75;;;;;;;;;;5054200;28;19935;-74
2023/08/11 04:56:01;;;;;;;;;;;;;;;;;;5037721;28;20102;-74
2023/08/11 04:58:28;;;;;;;14.32;10.02;;;;;;;;;;5053484;28;20423;-74
2023/08/11 05:00:54;;;;;;;24.20;11.93;;;;;;;;;;5048041;28;20500;-75
2023/08/11 05:03:20;;;;;;;18.08;10.90;;;;;;;;;;5049911;28;20509;-75
2023/08/11 05:05:46;;;;;;;;;;;;;;;;;;5049382;28;20067;-75
2023/08/11 05:08:12;;;;;;;15.05;10.43;;;;;;;;;;5049600;28;19928;-75
2023/08/11 05:10:38;;;;;;;;;;;;;;;;;;5037119;28;20055;-75
2023/08/11 05:13:04;;;;;;;17.70;10.80;;;;;;;;;;5051841;28;19921;-75
2023/08/11 05:15:30;;;;;;;17.73;10.40;;;;;;;;;;5036223;28;20056;-75
2023/08/11 05:17:56;;;;;;;;;;;;;;;;;;5037235;28;20087;-75
2023/08/11 05:20:23;;;;;;;18.23;9.85;;;;;;;;;;5034051;28;19924;-75
2023/08/11 05:22:49;;;;;;;15.43;9.43;;;;;;;;;;5033879;28;20037;-75
2023/08/11 05:25:15;;;;;;;12.15;9.13;;;;;;;;;;5033328;28;20099;-75
2023/08/11 05:27:41;;;;;;;;;;;;;;;;;;5052078;28;20055;-75
2023/08/11 05:30:08;;;;;;;17.27;10.57;;;;;;;;;;5052792;28;20015;-75
2023/08/11 05:32:34;;;;;;;14.15;9.70;;;;;;;;;;5035547;28;20044;-74
2023/08/11 05:35:00;;;;;;;18.27;10.27;;;;;;;;;;5033676;28;20045;-75
2023/08/11 05:37:27;;;;;;;15.43;9.60;;;;;;;;;;5040079;28;20216;-74
2023/08/11 05:39:53;;;;;;;14.15;9.20;;;;;;;;;;5049595;28;20044;-77
2023/08/11 05:42:19;;;;;;;15.73;10.20;;;;;;;;;;5035036;28;20140;-75
2023/08/11 05:44:46;;;;;;;14.68;10.35;;;;;;;;;;5036473;28;20048;-75
2023/08/11 05:47:12;;;;;;;16.13;10.15;;;;;;;;;;5036992;28;20067;-74
2023/08/11 05:49:38;;;;;;;14.23;9.15;;;;;;;;;;5022150;28;20041;-74
2023/08/11 05:52:04;;;;;;;;;;;;;;;;;;5042831;28;20041;-75
2023/08/11 05:54:30;;;;;;;14.70;9.00;;;;;;;;;;5038112;28;20027;-75
2023/08/11 05:56:57;;;;;;;15.07;9.50;;;;;;;;;;5036996;28;20045;-75
2023/08/11 05:59:23;;;;;;;15.25;9.05;;;;;;;;;;5036689;28;20673;-74
2023/08/11 06:01:50;;;;;;;12.90;8.45;;;;;;;;;;5037558;28;20390;-75
2023/08/11 06:04:16;;;;;;;12.43;9.23;;;;;;;;;;5035811;28;20052;-76
2023/08/11 06:06:43;;;;;;;16.23;8.27;;;;;;;;;;5040329;28;20501;-76
2023/08/11 06:09:09;;;;;;;10.95;7.93;;;;;;;;;;5039316;28;20151;-75
2023/08/11 06:11:35;;;;;;;;;;;;;;;;;;5057689;28;20051;-75
2023/08/11 06:14:02;;;;;;;16.33;8.53;;;;;;;;;;5038951;28;19920;-75
2023/08/11 06:16:28;;;;;;;16.80;9.35;;;;;;;;;;5056523;28;20048;-75
2023/08/11 06:18:55;;;;;;;;;;;;;;;;;;5056975;28;20079;-78
2023/08/11 06:21:21;;;;;;;9.40;6.75;;;;;;;;;;5056201;28;19920;-75
2023/08/11 06:23:47;;;;;;;;;;;;;;;;;;5058217;28;20414;-75
2023/08/11 06:26:13;;;;;;;15.60;8.05;;;;;;;;;;5070129;28;19928;-75
2023/08/11 06:28:41;;;;;;;;;;;;;;;;;;5036510;28;20049;-74
2023/08/11 06:31:07;;;;;;;10.50;7.22;;;;;;;;;;5077466;28;19920;-70
2023/08/11 06:33:33;;;;;;;;;;;;;;;;;;5062856;28;20036;-71
2023/08/11 06:35:59;;;;;;;12.27;6.95;;;;;;;;;;5056458;28;19920;-78
2023/08/11 06:38:25;;;;;;;;;;;;;;;;;;5057311;28;20045;-78
2023/08/11 06:40:51;;;;;;;12.15;7.55;;;;;;;;;;5056884;28;20407;-73
2023/08/11 06:43:18;;;;;;;13.85;7.47;;;;;;;;;;5053870;28;20119;-77
2023/08/11 06:45:45;;;;;;;;;;;;;;;;;;5059128;28;20049;-74
2023/08/11 06:48:12;;;;;;;11.10;7.75;;;;;;;;;;5036320;28;19946;-74
2023/08/11 06:50:38;;;;;;;14.98;7.07;;;;;;;;;;5054148;28;20041;-74
2023/08/11 06:53:04;;;;;;;10.23;6.00;;;;;;;;;;5039257;28;20037;-76
2023/08/11 06:55:30;;;;;;;;;;;;;;;;;;5073539;28;20044;-74
2023/08/11 06:57:56;;;;;;;10.38;5.65;;;;;;;;;;5052191;28;19999;-74
2023/08/11 07:00:22;;;;;;;;;;;;;;;;;;5062109;28;20152;-75
2023/08/11 07:02:48;;;;;;;12.48;6.68;;;;;;;;;;5055363;28;19920;-74
2023/08/11 07:05:14;;;;;;;10.50;6.43;;;;;;;;;;5080966;28;20075;-74
2023/08/11 07:07:40;;;;;;;11.60;5.47;;;;;;;;;;5036213;28;20053;-74
2023/08/11 07:10:06;;;;;;;;;;;;;;;;;;5069156;28;20092;-74
2023/08/11 07:12:32;;;;;;;10.13;6.03;;;;;;;;;;5035915;28;20401;-74
2023/08/11 07:14:58;;;;;;;10.50;6.53;;;;;;;;;;5035634;28;20044;-74
2023/08/11 07:17:24;;;;;;;;;;;;;;;;;;5036522;28;20056;-74
2023/08/11 07:19:50;;;;;;;10.75;5.78;;;;;;;;;;5035821;28;19920;-75
2023/08/11 07:22:17;;;;;;;;;;;;;;;;;;5040936;28;20037;-75
2023/08/11 07:24:43;;;;;;;10.38;5.68;;;;;;;;;;5048575;28;19920;-74
2023/08/11 07:27:09;;;;;;;8.75;5.55;;;;;;;;;;5052594;28;20044;-75
2023/08/11 07:29:35;;;;;;;;;;;;;;;;;;5054163;28;20114;-74
2023/08/11 07:32:03;;;;;;;9.88;5.40;;;;;;;;;;5055898;28;19967;-74
2023/08/11 07:34:29;;;;;;;6.82;4.80;;;;;;;;;;5055439;28;20052;-74
2023/08/11 07:36:55;;;;;;;;;;;;;;;;;;5039144;28;20040;-70
2023/08/11 07:39:22;;;;;;;6.88;4.63;;;;;;;;;;5072737;28;20002;-75
2023/08/11 07:41:48;;;;;;;9.02;4.90;;;;;;;;;;5055139;28;20036;-73
2023/08/11 07:44:15;;;;;;;6.32;3.92;;;;;;;;;;5038310;28;20041;-75
2023/08/11 07:46:41;;;;;;;9.15;4.30;;;;;;;;;;5052493;28;20456;-75
2023/08/11 07:49:07;;;;;;;8.07;4.50;;;;;;;;;;5041186;28;20051;-80
2023/08/11 07:51:33;;;;;;;5.38;3.60;;;;;;;;;;5043766;28;20044;-82
2023/08/11 07:53:59;;;;;;;;;;;;;;;;;;5058473;28;20051;-81
2023/08/11 07:56:25;;;;;;;7.75;4.32;;;;;;;;;;5074370;28;20010;-81
2023/08/11 07:58:53;;;;;;;9.95;4.90;;;;;;;;;;5056588;28;20075;-80
2023/08/11 08:01:19;;;;;;;8.70;4.53;;;;;;;;;;5044996;28;20040;-81
2023/08/11 08:03:45;;;;;;;6.32;3.38;;;;;;;;;;5075128;28;20088;-80
2023/08/11 08:06:11;;;;;;;8.57;3.95;;;;;;;;;;5074243;28;20044;-80
2023/08/11 08:08:38;;;;;;;17.13;4.82;;;;;;;;;;5052115;28;20474;-74
2023/08/11 08:11:04;;;;;;;7.80;3.85;;;;;;;;;;5051304;28;20131;-75
2023/08/11 08:13:31;;;;;;;10.88;4.05;;;;;;;;;;5069816;28;20186;-77
2023/08/11 08:15:57;;;;;;;8.23;3.83;;;;;;;;;;5057062;28;20562;-83
2023/08/11 08:18:23;;;;;;;5.18;3.00;;;;;;;;;;5042812;28;20055;-75
2023/08/11 08:20:49;;;;;;;11.60;4.07;;;;;;;;;;5071207;28;20405;-76
2023/08/11 08:23:15;;;;;;;8.65;3.75;;;;;;;;;;5054033;28;20056;-75
2023/08/11 08:25:41;;;;;;;8.32;3.22;;;;;;;;;;5030781;28;20048;-76
2023/08/11 08:28:07;;;;;;;6.70;3.45;;;;;;;;;;5055510;28;20524;-76
2023/08/11 08:30:34;;;;;;;8.80;3.78;;;;;;;;;;5055866;28;20105;-75
2023/08/11 08:33:00;;;;;;;5.43;3.17;;;;;;;;;;5049788;28;20127;-74
2023/08/11 08:35:26;;;;;;;7.32;3.60;;;;;;;;;;5046075;28;20067;-75
2023/08/11 08:37:52;;;;;;;5.45;3.22;;;;;;;;;;5044267;28;20052;-74
2023/08/11 08:40:18;;;;;;;8.82;3.67;;;;;;;;;;5054482;28;20044;-75
2023/08/11 08:42:45;;;;;;;6.07;3.45;;;;;;;;;;5072254;28;20040;-76
2023/08/11 08:45:11;;;;;;;4.70;2.90;;;;;;;;;;5062507;28;20090;-76
2023/08/11 08:47:38;;;;;;;5.18;2.95;;;;;;;;;;5055720;28;20109;-76
2023/08/11 08:50:04;;;;;;;6.95;3.55;;;;;;;;;;5072918;28;20127;-77
2023/08/11 08:52:31;;;;;;;8.27;3.50;;;;;;;;;;5072511;28;20074;-76
2023/08/11 08:54:57;;;;;;;7.75;3.45;;;;;;;;;;5072389;28;20450;-75
2023/08/11 08:57:25;;;;;;;4.50;2.72;;;;;;;;;;5055334;28;20530;-76
2023/08/11 08:59:51;;;;;;;5.72;3.13;;;;;;;;;;5072331;28;20036;-76
2023/08/11 09:02:18;;;;;;;4.85;2.75;;;;;;;;;;5062854;28;20038;-76
2023/08/11 09:04:45;;;;;;;8.10;3.13;;;;;;;;;;5061064;28;20040;-76
2023/08/11 09:07:11;;;;;;;7.32;3.47;;;;;;;;;;5056962;28;20135;-76
2023/08/11 09:09:37;;;;;;;8.32;3.20;;;;;;;;;;5069362;28;20879;-76
2023/08/11 09:12:03;;;;;;;5.70;3.35;;;;;;;;;;5072565;28;20085;-76
2023/08/11 09:14:29;;;;;;;6.93;3.10;;;;;;;;;;5071499;28;20101;-76
2023/08/11 09:16:58;;;;;;;7.25;3.03;;;;;;;;;;5073779;28;20048;-76
2023/08/11 09:19:24;;;;;;;6.38;3.03;;;;;;;;;;5068027;28;20082;-75
2023/08/11 09:21:50;;;;;;;7.20;3.38;;;;;;;;;;5074818;28;20120;-76
2023/08/11 09:24:17;;;;;;;6.53;3.20;;;;;;;;;;5052876;28;20044;-76
2023/08/11 09:26:49;;;;;;;5.95;3.13;;;;;;;;;;5050305;28;20053;-76
2023/08/11 09:29:15;;;;;;;7.15;3.47;;;;;;;;;;5066450;28;20457;-76
2023/08/11 09:31:41;;;;;;;6.07;3.25;;;;;;;;;;5049971;28;20159;-76
2023/08/11 09:34:17;;;;;;;5.95;2.97;;;;;;;;;;5043179;28;20059;-76
2023/08/11 09:36:44;;;;;;;7.32;3.33;;;;;;;;;;5053370;28;20044;-76
2023/08/11 09:39:13;;;;;;;6.90;3.38;;;;;;;;;;5037053;28;20048;-77
2023/08/11 09:41:47;;;;;;;6.93;3.33;;;;;;;;;;5052725;28;20056;-76
2023/08/11 09:44:21;;;;;;;8.60;3.30;;;;;;;;;;5051610;28;20053;-76
2023/08/11 09:46:48;;;;;;;7.68;3.10;;;;;;;;;;5053770;28;20083;-76
2023/08/11 09:49:14;;;;;;;7.63;3.22;;;;;;;;;;5056717;28;20052;-76
2023/08/11 09:51:40;;;;;;;7.38;2.95;;;;;;;;;;5042018;28;20048;-76
2023/08/11 09:54:08;;;;;;;6.63;3.00;;;;;;;;;;5033053;28;20045;-76
2023/08/11 09:56:41;;;;;;;6.18;3.13;;;;;;;;;;5032780;28;20390;-77
2023/08/11 09:59:11;;;;;;;5.53;2.75;;;;;;;;;;5038052;28;20107;-77
2023/08/11 10:01:37;;;;;;;5.88;2.70;;;;;;;;;;5052384;28;20044;-75
2023/08/11 10:04:07;;;;;;;3.35;2.05;;;;;;;;;;5053204;28;20049;-76
2023/08/11 10:06:35;;;;;;;7.95;2.90;;;;;;;;;;5053183;28;20048;-76
2023/08/11 10:09:03;;;;;;;9.38;2.78;;;;;;;;;;5049569;28;20064;-76
2023/08/11 10:11:32;;;;;;;6.93;2.70;;;;;;;;;;5049826;28;20135;-76
2023/08/11 10:14:02;;;;;;;8.27;3.10;;;;;;;;;;5047920;28;20490;-76
2023/08/11 10:16:28;;;;;;;5.75;3.15;;;;;;;;;;5049613;28;20048;-77
2023/08/11 10:18:55;;;;;;;7.10;2.83;;;;;;;;;;5050140;28;20056;-76
2023/08/11 10:21:22;;;;;;;5.88;3.17;;;;;;;;;;5042629;28;20045;-76
2023/08/11 10:23:48;;;;;;;5.95;3.13;;;;;;;;;;5029379;28;20057;-77
2023/08/11 10:26:14;;;;;;;7.97;2.70;;;;;;;;;;5024153;28;20041;-76
2023/08/11 10:28:41;;;;;;;4.55;2.50;;;;;;;;;;5048722;28;20053;-76
2023/08/11 10:31:07;;;;;;;6.53;3.10;;;;;;;;;;5049780;28;20159;-76
2023/08/11 10:33:33;;;;;;;9.07;3.28;;;;;;;;;;5049705;28;20084;-76
2023/08/11 10:36:00;;;;;;;7.22;3.15;;;;;;;;;;5048585;28;20049;-76
2023/08/11 10:38:27;;;;;;;7.90;2.80;;;;;;;;;;5040205;28;20099;-74
2023/08/11 10:41:13;;;;;;;6.97;2.78;;;;;;;;;;5034411;28;20041;-75
2023/08/11 10:43:43;;;;;;;7.93;2.72;;;;;;;;;;5034701;28;20083;-74
2023/08/11 10:46:27;;;;;;;7.45;3.05;;;;;;;;;;5022735;28;20499;-74
2023/08/11 10:49:14;;;;;;;6.57;3.00;;;;;;;;;;5048640;28;20044;-74
2023/08/11 10:51:40;;;;;;;7.70;2.85;;;;;;;;;;5022448;28;20474;-74
2023/08/11 10:54:06;;;;;;;5.78;2.63;;;;;;;;;;5052703;28;20120;-75
2023/08/11 10:56:38;;;;;;;7.75;2.80;;;;;;;;;;5052879;28;20096;-74
2023/08/11 10:59:15;;;;;;;9.20;2.90;;;;;;;;;;5051896;28;20055;-74
2023/08/11 11:01:42;;;;;;;6.45;2.72;;;;;;;;;;5050065;28;20044;-71
2023/08/11 11:04:09;;;;;;;5.13;2.67;;;;;;;;;;5054065;28;20049;-75
2023/08/11 11:06:36;;;;;;;6.18;2.42;;;;;;;;;;5032666;28;20049;-74
2023/08/11 11:09:03;;;;;;;7.03;2.60;;;;;;;;;;5041569;28;20080;-73
2023/08/11 11:11:30;;;;;;;7.45;2.75;;;;;;;;;;5049778;28;20414;-71
2023/08/11 11:13:57;;;;;;;6.43;2.60;;;;;;;;;;5051906;28;20136;-72
2023/08/11 11:16:23;;;;;;;6.20;2.90;;;;;;;;;;5036521;28;20049;-72
2023/08/11 11:18:50;;;;;;;5.82;2.90;;;;;;;;;;5033110;28;20096;-72
2023/08/11 11:21:17;;;;;;;6.07;2.35;;;;;;;;;;5032990;28;20049;-72
2023/08/11 11:23:44;;;;;;;5.78;2.30;;;;;;;;;;5037945;28;20128;-77
2023/08/11 11:26:10;;;;;;;4.93;2.53;;;;;;;;;;5050565;28;20049;-77
2023/08/11 11:28:36;;;;;;;6.15;2.72;;;;;;;;;;5031619;28;20045;-76
2023/08/11 11:31:02;;;;;;;6.40;2.30;;;;;;;;;;5032165;28;20089;-75
2023/08/11 11:33:28;;;;;;;5.00;2.25;;;;;;;;;;5033761;28;20398;-77
2023/08/11 11:35:54;;;;;;;5.60;2.33;;;;;;;;;;5032323;28;20376;-79
2023/08/11 11:38:22;;;;;;;6.22;2.65;;;;;;;;;;5050154;28;20045;-79
2023/08/11 11:40:49;;;;;;;6.20;2.30;;;;;;;;;;5051309;28;20433;-80
2023/08/11 11:43:17;;;;;;;5.95;2.35;;;;;;;;;;5049946;28;20040;-80
2023/08/11 11:45:46;;;;;;;5.82;2.42;;;;;;;;;;5049645;28;20045;-77
2023/08/11 11:48:13;;;;;;;8.30;2.40;;;;;;;;;;5049425;28;20053;-80
2023/08/11 11:50:39;;;;;;;4.95;2.47;;;;;;;;;;5035072;28;20051;-77
2023/08/11 11:53:06;;;;;;;3.75;2.05;;;;;;;;;;5035431;28;20052;-77
2023/08/11 11:55:32;;;;;;;7.82;2.20;;;;;;;;;;5035866;28;20059;-76
2023/08/11 11:57:58;;;;;;;4.38;2.10;;;;;;;;;;5050056;28;20119;-75
2023/08/11 12:00:25;;;;;;;7.72;2.13;;;;;;;;;;5050584;28;20516;-76
2023/08/11 12:02:53;;;;;;;5.03;1.90;;;;;;;;;;5044820;28;20371;-76
2023/08/11 12:05:21;;;;;;;8.70;2.15;;;;;;;;;;5045782;28;20055;-77
2023/08/11 12:07:47;;;;;;;4.22;2.35;;;;;;;;;;5045946;28;20132;-77
2023/08/11 12:10:15;;;;;;;8.95;2.50;;;;;;;;;;5048651;28;20068;-77
2023/08/11 12:12:42;;;;;;;7.88;2.50;;;;;;;;;;5050179;28;20059;-76
2023/08/11 12:15:08;;;;;;;4.53;2.15;;;;;;;;;;5031932;28;20045;-77
2023/08/11 12:17:35;;;;;;;5.30;2.30;;;;;;;;;;5051366;28;20052;-79
2023/08/11 12:20:03;;;;;;;8.50;2.65;;;;;;;;;;5033350;28;20106;-79
2023/08/11 12:22:30;;;;;;;6.03;2.40;;;;;;;;;;5034763;28;20047;-79
2023/08/11 12:24:56;;;;;;;3.92;2.00;;;;;;;;;;5049973;28;20044;-80
2023/08/11 12:27:22;;;;;;;6.25;2.35;;;;;;;;;;5034864;28;20132;-80
2023/08/11 12:29:48;;;;;;;6.03;2.35;;;;;;;;;;5050086;28;20432;-79
2023/08/11 12:32:14;;;;;;;6.25;2.47;;;;;;;;;;5035024;28;20078;-79
2023/08/11 12:34:40;;;;;;;5.82;2.50;;;;;;;;;;5051064;28;20509;-80
2023/08/11 12:37:07;;;;;;;4.72;2.33;;;;;;;;;;5034641;28;20067;-79
2023/08/11 12:39:33;;;;;;;5.75;2.38;;;;;;;;;;5051173;28;20088;-79
2023/08/11 12:41:59;;;;;;;5.18;2.08;;;;;;;;;;5050212;28;20079;-79
2023/08/11 12:44:25;;;;;;;6.22;2.42;;;;;;;;;;5048700;28;20049;-79
2023/08/11 12:46:51;;;;;;;5.20;2.40;;;;;;;;;;5050834;28;20115;-79
2023/08/11 12:49:18;;;;;;;4.13;1.95;;;;;;;;;;5051157;28;20551;-80
2023/08/11 12:51:44;;;;;;;4.03;2.20;;;;;;;;;;5030653;28;20045;-79
2023/08/11 12:54:11;;;;;;;11.55;2.47;;;;;;;;;;5030735;28;20439;-80
2023/08/11 12:56:37;;;;;;;7.47;2.88;;;;;;;;;;5015977;28;20084;-80
2023/08/11 12:59:03;;;;;;;3.55;2.13;;;;;;;;;;5029109;28;20057;-79
2023/08/11 13:01:29;;;;;;;9.35;2.20;;;;;;;;;;5030975;28;20554;-80
2023/08/11 13:03:57;;;;;;;6.20;2.40;;;;;;;;;;5030693;28;20140;-80
2023/08/11 13:06:23;;;;;;;7.10;2.00;;;;;;;;;;5032502;28;20509;-79
2023/08/11 13:08:50;;;;;;;7.72;2.42;;;;;;;;;;5029356;28;20107;-80
2023/08/11 13:11:16;;;;;;;5.68;2.38;;;;;;;;;;5034515;28;20479;-78
2023/08/11 13:13:42;;;;;;;5.78;2.17;;;;;;;;;;5049671;28;20045;-78
2023/08/11 13:16:08;;;;;;;4.10;2.20;;;;;;;;;;5033502;28;20080;-77
2023/08/11 13:18:34;;;;;;;9.75;2.55;;;;;;;;;;5027158;28;20124;-77
2023/08/11 13:21:01;;;;;;;7.65;2.50;;;;;;;;;;5030370;28;20049;-77
2023/08/11 13:23:29;;;;;;;6.97;2.47;;;;;;;;;;5048855;28;20179;-77
2023/08/11 13:25:55;;;;;;;6.55;2.30;;;;;;;;;;5050322;28;20053;-77
2023/08/11 13:28:21;;;;;;;7.15;2.50;;;;;;;;;;5031873;28;20094;-78
2023/08/11 13:30:47;;;;;;;6.75;2.60;;;;;;;;;;5027630;28;20080;-78
2023/08/11 13:33:13;;;;;;;7.68;2.30;;;;;;;;;;5044941;28;20048;-78
2023/08/11 13:35:39;;;;;;;5.65;2.28;;;;;;;;;;5068350;28;20102;-77
2023/08/11 13:38:06;;;;;;;7.07;2.45;;;;;;;;;;5050342;28;20482;-78
2023/08/11 13:40:32;;;;;;;5.60;2.50;;;;;;;;;;5064133;28;20129;-79
2023/08/11 13:42:58;;;;;;;5.45;2.58;;;;;;;;;;5051837;28;20044;-78
2023/08/11 13:45:24;;;;;;;6.65;2.70;;;;;;;;;;5069382;28;20375;-78
2023/08/11 13:47:50;;;;;;;6.13;2.22;;;;;;;;;;5069222;28;20053;-78
2023/08/11 13:50:16;;;;;;;6.63;2.95;;;;;;;;;;5057030;28;20083;-76
2023/08/11 13:52:43;;;;;;;5.07;2.30;;;;;;;;;;5036928;28;20048;-76
2023/08/11 13:55:09;;;;;;;6.57;2.15;;;;;;;;;;5065866;28;20070;-76
2023/08/11 13:57:35;;;;;;;5.68;2.47;;;;;;;;;;5052248;28;20056;-76
2023/08/11 14:00:05;;;;;;;8.73;2.35;;;;;;;;;;5051724;28;20049;-76
2023/08/11 14:02:31;;;;;;;5.22;2.40;;;;;;;;;;5048753;28;20047;-76
2023/08/11 14:04:58;;;;;;;7.13;2.70;;;;;;;;;;5069550;28;20040;-78
2023/08/11 14:07:24;;;;;;;6.35;2.50;;;;;;;;;;5050076;28;20037;-78
2023/08/11 14:09:50;;;;;;;6.75;2.50;;;;;;;;;;5068862;28;20405;-79
2023/08/11 14:12:17;;;;;;;4.65;2.40;;;;;;;;;;5065119;28;20131;-79
2023/08/11 14:14:43;;;;;;;5.85;2.80;;;;;;;;;;5071517;28;20036;-78
2023/08/11 14:17:09;;;;;;;5.88;2.38;;;;;;;;;;5046760;28;20489;-74
2023/08/11 14:19:35;;;;;;;5.88;2.53;;;;;;;;;;5062006;28;20131;-74
2023/08/11 14:22:02;;;;;;;4.38;2.40;;;;;;;;;;5026366;28;20050;-75
2023/08/11 14:24:28;;;;;;;8.18;2.50;;;;;;;;;;5054231;28;20403;-75
2023/08/11 14:26:54;;;;;;;7.28;2.35;;;;;;;;;;5073151;28;20139;-77
2023/08/11 14:29:20;;;;;;;5.53;2.40;;;;;;;;;;5039045;28;20051;-75
2023/08/11 14:31:46;;;;;;;4.20;2.22;;;;;;;;;;5073544;28;20055;-75
2023/08/11 14:34:12;;;;;;;5.25;2.40;;;;;;;;;;5072889;28;20094;-75
2023/08/11 14:36:38;;;;;;;4.78;2.33;;;;;;;;;;5033579;28;20067;-76
2023/08/11 14:39:05;;;;;;;9.55;2.60;;;;;;;;;;5047346;28;20056;-75
2023/08/11 14:41:31;;;;;;;7.50;2.35;;;;;;;;;;5060067;28;20072;-72
2023/08/11 14:43:58;;;;;;;6.47;2.58;;;;;;;;;;5064378;28;20477;-77
2023/08/11 14:46:24;;;;;;;6.53;2.47;;;;;;;;;;5071123;28;20048;-76